createdAt,value
2023-01-28T00:00:51.800Z,57.48
2023-01-28T00:01:59.883Z,57.41
2023-01-28T00:03:01.955Z,58.25
2023-01-28T00:04:03.994Z,59.38
2023-01-28T00:05:06.833Z,60.56
2023-01-28T00:06:15.831Z,61.70
2023-01-28T00:07:19.201Z,62.85
2023-01-28T00:08:21.216Z,63.84
2023-01-28T00:09:23.107Z,63.80
2023-01-28T00:10:25.032Z,62.72
2023-01-28T00:11:26.959Z,61.35
2023-01-28T00:12:29.756Z,60.01
2023-01-28T00:13:32.872Z,58.67
2023-01-28T00:14:34.839Z,57.40
2023-01-28T00:15:36.728Z,57.45
2023-01-28T00:16:38.653Z,58.38
2023-01-28T00:17:40.567Z,59.64
2023-01-28T00:18:42.476Z,60.86
2023-01-28T00:19:44.926Z,61.86
2023-01-28T00:21:16.372Z,62.74
2023-01-28T00:22:18.424Z,63.97
2023-01-28T00:23:20.210Z,63.59
2023-01-28T00:24:22.113Z,62.55
2023-01-28T00:25:23.942Z,61.25
2023-01-28T00:26:26.648Z,59.93
2023-01-28T00:27:28.646Z,58.60
2023-01-28T00:28:33.797Z,57.56
2023-01-28T00:29:35.765Z,57.69
2023-01-28T00:30:38.168Z,58.62
2023-01-28T00:31:41.478Z,59.76
2023-01-28T00:32:44.458Z,60.89
2023-01-28T00:33:49.504Z,61.98
2023-01-28T00:34:51.554Z,63.00
2023-01-28T00:36:04.183Z,64.00
2023-01-28T00:37:06.513Z,63.74
2023-01-28T00:38:09.124Z,62.53
2023-01-28T00:39:15.314Z,61.20
2023-01-28T00:40:17.820Z,59.91
2023-01-28T00:41:23.193Z,58.66
2023-01-28T00:42:25.975Z,57.61
2023-01-28T00:43:31.385Z,57.83
2023-01-28T00:44:33.230Z,58.69
2023-01-28T00:45:39.187Z,59.80
2023-01-28T00:46:41.980Z,60.95
2023-01-28T00:47:45.274Z,61.98
2023-01-28T00:48:48.025Z,63.07
2023-01-28T00:49:49.905Z,64.11
2023-01-28T00:50:51.956Z,63.97
2023-01-28T00:51:55.205Z,62.89
2023-01-28T00:52:57.108Z,61.53
2023-01-28T00:53:59.835Z,60.07
2023-01-28T00:55:02.538Z,58.64
2023-01-28T00:56:09.058Z,57.30
2023-01-28T00:57:11.605Z,57.31
2023-01-28T00:58:13.659Z,58.14
2023-01-28T00:59:15.650Z,59.28
2023-01-28T01:00:20.266Z,60.45
2023-01-28T01:01:27.160Z,61.63
2023-01-28T01:02:29.917Z,62.79
2023-01-28T01:03:31.892Z,64.05
2023-01-28T01:04:35.472Z,64.26
2023-01-28T01:05:38.536Z,63.34
2023-01-28T01:06:42.681Z,62.06
2023-01-28T01:07:45.007Z,60.81
2023-01-28T01:08:50.290Z,59.64
2023-01-28T01:09:52.893Z,58.26
2023-01-28T01:10:59.233Z,57.60
2023-01-28T01:12:01.751Z,58.09
2023-01-28T01:13:06.178Z,59.05
2023-01-28T01:14:10.600Z,60.22
2023-01-28T01:15:13.340Z,61.51
2023-01-28T01:16:17.409Z,62.79
2023-01-28T01:17:20.395Z,63.98
2023-01-28T01:18:22.339Z,64.15
2023-01-28T01:19:24.210Z,63.29
2023-01-28T01:20:33.817Z,61.95
2023-01-28T01:21:36.600Z,60.43
2023-01-28T01:22:39.315Z,59.07
2023-01-28T01:23:42.148Z,57.66
2023-01-28T01:24:44.147Z,57.38
2023-01-28T01:25:46.219Z,58.04
2023-01-28T01:26:49.715Z,59.18
2023-01-28T01:27:51.683Z,60.41
2023-01-28T01:28:54.040Z,61.55
2023-01-28T01:29:56.368Z,62.54
2023-01-28T01:31:15.436Z,63.63
2023-01-28T01:32:18.613Z,64.02
2023-01-28T01:33:20.501Z,63.11
2023-01-28T01:34:22.553Z,61.82
2023-01-28T01:35:24.413Z,60.52
2023-01-28T01:36:26.478Z,59.18
2023-01-28T01:37:29.733Z,57.72
2023-01-28T01:38:32.020Z,57.17
2023-01-28T01:39:34.704Z,57.82
2023-01-28T01:40:36.792Z,58.95
2023-01-28T01:41:39.785Z,60.19
2023-01-28T01:42:42.103Z,61.33
2023-01-28T01:43:48.676Z,62.43
2023-01-28T01:45:07.111Z,63.78
2023-01-28T01:46:09.153Z,64.14
2023-01-28T01:47:12.253Z,63.21
2023-01-28T01:48:28.658Z,61.83
2023-01-28T01:49:31.219Z,60.33
2023-01-28T01:50:42.451Z,59.16
2023-01-28T01:51:48.482Z,57.52
2023-01-28T01:52:56.301Z,57.34
2023-01-28T01:54:00.701Z,58.14
2023-01-28T01:55:11.137Z,59.21
2023-01-28T01:56:17.970Z,60.35
2023-01-28T01:57:27.575Z,61.47
2023-01-28T01:58:36.146Z,62.68
2023-01-28T01:59:42.528Z,63.95
2023-01-28T02:00:44.713Z,64.09
2023-01-28T02:01:47.005Z,63.16
2023-01-28T02:02:51.940Z,61.88
2023-01-28T02:03:58.722Z,60.55
2023-01-28T02:05:00.613Z,59.41
2023-01-28T02:06:04.139Z,58.15
2023-01-28T02:07:10.030Z,57.66
2023-01-28T02:08:23.489Z,58.29
2023-01-28T02:09:32.687Z,59.43
2023-01-28T02:10:34.572Z,60.75
2023-01-28T02:11:37.026Z,61.82
2023-01-28T02:12:52.529Z,62.81
2023-01-28T02:13:58.646Z,63.93
2023-01-28T02:15:07.876Z,63.69
2023-01-28T02:16:11.901Z,62.59
2023-01-28T02:17:14.403Z,61.27
2023-01-28T02:18:16.888Z,60.08
2023-01-28T02:19:26.425Z,59.01
2023-01-28T02:20:52.049Z,57.70
2023-01-28T02:22:05.890Z,57.76
2023-01-28T02:23:21.489Z,58.86
2023-01-28T02:25:09.586Z,60.16
2023-01-28T02:26:36.253Z,61.99
2023-01-28T02:27:59.943Z,63.39
2023-01-28T02:29:04.672Z,63.83
2023-01-28T02:30:25.311Z,62.94
2023-01-28T02:32:03.732Z,61.40
2023-01-28T02:33:34.993Z,59.66
2023-01-28T02:34:49.697Z,57.58
2023-01-28T02:35:55.879Z,57.35
2023-01-28T02:37:07.080Z,58.17
2023-01-28T02:38:33.236Z,59.44
2023-01-28T02:39:52.202Z,61.17
2023-01-28T02:41:04.028Z,62.56
2023-01-28T02:42:35.252Z,63.74
2023-01-28T02:43:41.433Z,63.58
2023-01-28T02:44:43.470Z,62.48
2023-01-28T02:46:04.639Z,61.21
2023-01-28T02:47:35.078Z,59.68
2023-01-28T02:48:37.959Z,57.79
2023-01-28T02:49:51.970Z,57.50
2023-01-28T02:51:24.772Z,58.28
2023-01-28T02:53:00.385Z,59.87
2023-01-28T02:54:14.695Z,61.54
2023-01-28T02:55:31.459Z,62.84
2023-01-28T02:56:48.755Z,64.04
2023-01-28T02:58:06.602Z,63.47
2023-01-28T02:59:34.139Z,61.85
2023-01-28T03:01:01.806Z,59.89
2023-01-28T03:02:46.001Z,57.99
2023-01-28T03:04:07.753Z,57.42
2023-01-28T03:05:23.147Z,58.61
2023-01-28T03:06:36.352Z,60.00
2023-01-28T03:07:39.651Z,61.32
2023-01-28T03:09:23.231Z,62.39
2023-01-28T03:10:28.562Z,64.20
2023-01-28T03:11:53.545Z,63.95
2023-01-28T03:13:18.131Z,62.50
2023-01-28T03:14:41.112Z,60.78
2023-01-28T03:16:08.631Z,59.03
2023-01-28T03:17:40.806Z,57.41
2023-01-28T03:19:10.948Z,58.00
2023-01-28T03:20:33.103Z,59.56
2023-01-28T03:22:02.964Z,60.93
2023-01-28T03:23:33.643Z,62.35
2023-01-28T03:25:03.346Z,63.80
2023-01-28T03:26:30.837Z,63.69
2023-01-28T03:27:57.535Z,62.12
2023-01-28T03:29:27.618Z,60.13
2023-01-28T03:30:59.158Z,58.22
2023-01-28T03:32:32.212Z,57.37
2023-01-28T03:33:56.134Z,58.28
2023-01-28T03:35:17.624Z,59.64
2023-01-28T03:36:39.625Z,60.95
2023-01-28T03:37:43.171Z,62.39
2023-01-28T03:38:56.654Z,63.64
2023-01-28T03:40:04.903Z,64.00
2023-01-28T03:41:07.176Z,63.23
2023-01-28T03:42:13.792Z,62.05
2023-01-28T03:43:33.689Z,60.38
2023-01-28T03:44:55.364Z,59.05
2023-01-28T03:45:58.160Z,57.28
2023-01-28T03:47:00.288Z,57.20
2023-01-28T03:48:02.211Z,58.02
2023-01-28T03:49:04.159Z,59.13
2023-01-28T03:50:07.412Z,60.29
2023-01-28T03:51:26.539Z,61.72
2023-01-28T03:52:32.007Z,62.69
2023-01-28T03:53:46.085Z,64.08
2023-01-28T03:54:49.314Z,64.12
2023-01-28T03:55:53.727Z,63.07
2023-01-28T03:56:55.651Z,61.63
2023-01-28T03:57:57.574Z,60.33
2023-01-28T03:58:59.420Z,59.15
2023-01-28T04:00:01.657Z,57.79
2023-01-28T04:01:03.988Z,57.35
2023-01-28T04:02:06.404Z,57.95
2023-01-28T04:03:16.050Z,59.06
2023-01-28T04:04:25.115Z,60.54
2023-01-28T04:05:30.381Z,61.72
2023-01-28T04:06:34.151Z,62.83
2023-01-28T04:07:56.744Z,64.30
2023-01-28T04:09:08.873Z,63.97
2023-01-28T04:10:31.370Z,62.44
2023-01-28T04:11:41.009Z,61.13
2023-01-28T04:12:44.283Z,60.10
2023-01-28T04:13:48.794Z,59.14
2023-01-28T04:14:51.980Z,57.98
2023-01-28T04:16:03.643Z,57.77
2023-01-28T04:17:10.888Z,58.57
2023-01-28T04:18:13.435Z,59.73
2023-01-28T04:19:16.189Z,60.93
2023-01-28T04:20:19.362Z,62.17
2023-01-28T04:21:21.228Z,63.47
2023-01-28T04:22:23.531Z,64.31
2023-01-28T04:23:26.941Z,63.97
2023-01-28T04:24:30.359Z,63.02
2023-01-28T04:25:35.110Z,61.75
2023-01-28T04:26:40.374Z,60.56
2023-01-28T04:27:42.670Z,59.39
2023-01-28T04:28:52.845Z,57.97
2023-01-28T04:29:55.413Z,57.56
2023-01-28T04:31:10.033Z,58.40
2023-01-28T04:32:32.607Z,60.02
2023-01-28T04:34:01.829Z,61.78
2023-01-28T04:35:17.442Z,63.31
2023-01-28T04:37:10.109Z,64.37
2023-01-28T04:38:40.575Z,63.03
2023-01-28T04:40:05.883Z,61.35
2023-01-28T04:41:23.411Z,59.93
2023-01-28T04:42:25.909Z,58.81
2023-01-28T04:43:38.969Z,57.71
2023-01-28T04:45:08.801Z,58.37
2023-01-28T04:46:26.672Z,59.76
2023-01-28T04:47:45.270Z,61.35
2023-01-28T04:49:05.806Z,62.93
2023-01-28T04:50:25.828Z,64.35
2023-01-28T04:51:44.359Z,63.98
2023-01-28T04:53:01.896Z,62.56
2023-01-28T04:54:54.005Z,60.34
2023-01-28T04:55:57.620Z,59.29
2023-01-28T04:56:59.920Z,57.97
2023-01-28T04:58:02.343Z,57.63
2023-01-28T04:59:05.023Z,58.31
2023-01-28T05:00:09.127Z,59.46
2023-01-28T05:01:11.121Z,60.78
2023-01-28T05:02:13.301Z,62.06
2023-01-28T05:03:17.843Z,63.36
2023-01-28T05:04:19.956Z,64.26
2023-01-28T05:05:22.469Z,64.14
2023-01-28T05:06:34.028Z,63.09
2023-01-28T05:07:41.847Z,61.78
2023-01-28T05:08:46.182Z,60.61
2023-01-28T05:09:50.622Z,59.47
2023-01-28T05:10:52.765Z,58.20
2023-01-28T05:11:54.714Z,57.60
2023-01-28T05:12:56.645Z,58.11
2023-01-28T05:13:58.689Z,59.16
2023-01-28T05:15:06.727Z,60.53
2023-01-28T05:16:08.882Z,61.76
2023-01-28T05:17:10.758Z,62.94
2023-01-28T05:18:13.277Z,64.14
2023-01-28T05:19:21.142Z,64.24
2023-01-28T05:20:23.106Z,63.37
2023-01-28T05:21:25.713Z,62.15
2023-01-28T05:22:36.639Z,60.69
2023-01-28T05:23:48.047Z,59.46
2023-01-28T05:24:50.078Z,58.29
2023-01-28T05:25:51.956Z,57.67
2023-01-28T05:26:54.078Z,58.20
2023-01-28T05:27:55.961Z,59.30
2023-01-28T05:28:57.851Z,60.50
2023-01-28T05:30:00.276Z,61.70
2023-01-28T05:31:07.315Z,62.96
2023-01-28T05:32:09.853Z,64.24
2023-01-28T05:33:12.077Z,64.38
2023-01-28T05:34:14.152Z,63.70
2023-01-28T05:35:16.675Z,62.67
2023-01-28T05:36:19.903Z,61.45
2023-01-28T05:37:22.112Z,60.19
2023-01-28T05:38:27.632Z,58.96
2023-01-28T05:39:31.465Z,57.76
2023-01-28T05:40:33.551Z,57.64
2023-01-28T05:41:37.840Z,58.47
2023-01-28T05:42:40.016Z,59.67
2023-01-28T05:44:28.897Z,61.88
2023-01-28T05:46:17.779Z,64.12
2023-01-28T05:48:19.227Z,63.62
2023-01-28T05:49:51.789Z,61.76
2023-01-28T05:51:19.106Z,60.23
2023-01-28T05:52:28.768Z,59.11
2023-01-28T05:53:32.275Z,57.89
2023-01-28T05:54:34.614Z,57.77
2023-01-28T05:55:36.773Z,58.57
2023-01-28T05:56:40.325Z,59.79
2023-01-28T05:57:42.713Z,61.16
2023-01-28T05:58:45.973Z,62.45
2023-01-28T05:59:48.105Z,63.84
2023-01-28T06:00:50.201Z,64.49
2023-01-28T06:01:53.541Z,64.01
2023-01-28T06:02:56.051Z,62.90
2023-01-28T06:03:59.532Z,61.64
2023-01-28T06:05:04.884Z,60.40
2023-01-28T06:06:07.233Z,59.42
2023-01-28T06:07:13.246Z,58.14
2023-01-28T06:08:18.116Z,57.69
2023-01-28T06:09:19.990Z,58.39
2023-01-28T06:10:21.933Z,59.59
2023-01-28T06:11:24.208Z,60.88
2023-01-28T06:12:28.951Z,62.22
2023-01-28T06:13:49.880Z,63.95
2023-01-28T06:15:40.183Z,64.02
2023-01-28T06:17:29.103Z,61.95
2023-01-28T06:18:38.707Z,60.56
2023-01-28T06:19:40.849Z,59.51
2023-01-28T06:20:43.609Z,58.28
2023-01-28T06:21:45.582Z,57.64
2023-01-28T06:22:51.110Z,58.13
2023-01-28T06:23:53.018Z,59.26
2023-01-28T06:24:54.986Z,60.54
2023-01-28T06:25:57.436Z,61.81
2023-01-28T06:27:00.299Z,63.07
2023-01-28T06:28:02.207Z,64.20
2023-01-28T06:29:04.100Z,64.23
2023-01-28T06:30:06.771Z,63.35
2023-01-28T06:31:08.931Z,62.19
2023-01-28T06:32:11.252Z,61.00
2023-01-28T06:33:13.362Z,59.91
2023-01-28T06:34:15.584Z,58.77
2023-01-28T06:35:17.366Z,57.75
2023-01-28T06:36:19.410Z,57.96
2023-01-28T06:37:21.285Z,58.89
2023-01-28T06:38:23.104Z,60.10
2023-01-28T06:39:27.140Z,61.37
2023-01-28T06:40:29.030Z,62.70
2023-01-28T06:41:31.112Z,64.02
2023-01-28T06:42:33.287Z,64.43
2023-01-28T06:43:35.680Z,63.82
2023-01-28T06:44:37.957Z,62.71
2023-01-28T06:45:39.942Z,61.46
2023-01-28T06:46:42.064Z,60.31
2023-01-28T06:47:44.233Z,59.25
2023-01-28T06:48:46.226Z,58.11
2023-01-28T06:49:48.213Z,57.93
2023-01-28T06:50:51.848Z,58.77
2023-01-28T06:51:53.800Z,60.08
2023-01-28T06:52:55.713Z,61.38
2023-01-28T06:53:57.647Z,62.57
2023-01-28T06:54:59.658Z,63.89
2023-01-28T06:56:01.897Z,64.38
2023-01-28T06:57:04.014Z,63.66
2023-01-28T06:58:05.940Z,62.41
2023-01-28T06:59:07.946Z,61.08
2023-01-28T07:00:13.003Z,59.89
2023-01-28T07:01:15.571Z,58.64
2023-01-28T07:02:17.440Z,57.77
2023-01-28T07:03:19.548Z,58.02
2023-01-28T07:04:21.659Z,59.01
2023-01-28T07:05:24.588Z,60.27
2023-01-28T07:06:26.507Z,61.60
2023-01-28T07:07:29.396Z,62.84
2023-01-28T07:08:31.593Z,64.12
2023-01-28T07:09:33.634Z,64.38
2023-01-28T07:10:35.782Z,63.63
2023-01-28T07:11:37.981Z,62.44
2023-01-28T07:12:40.167Z,61.17
2023-01-28T07:13:42.323Z,59.98
2023-01-28T07:14:44.245Z,58.90
2023-01-28T07:15:46.206Z,57.94
2023-01-28T07:16:48.050Z,58.06
2023-01-28T07:17:49.900Z,59.01
2023-01-28T07:18:51.679Z,60.23
2023-01-28T07:19:53.457Z,61.45
2023-01-28T07:20:55.548Z,62.65
2023-01-28T07:22:00.871Z,63.94
2023-01-28T07:23:02.720Z,64.39
2023-01-28T07:24:05.469Z,63.68
2023-01-28T07:25:08.916Z,62.52
2023-01-28T07:26:11.342Z,61.39
2023-01-28T07:27:13.644Z,60.33
2023-01-28T07:28:21.280Z,59.31
2023-01-28T07:29:23.230Z,57.95
2023-01-28T07:30:25.721Z,57.63
2023-01-28T07:31:27.800Z,58.36
2023-01-28T07:32:29.908Z,59.63
2023-01-28T07:33:32.263Z,61.08
2023-01-28T07:34:34.526Z,62.48
2023-01-28T07:35:37.383Z,63.83
2023-01-28T07:36:39.512Z,64.37
2023-01-28T07:37:41.378Z,63.76
2023-01-28T07:38:43.144Z,62.54
2023-01-28T07:39:45.143Z,61.22
2023-01-28T07:40:47.947Z,60.01
2023-01-28T07:41:49.867Z,58.83
2023-01-28T07:43:07.318Z,57.66
2023-01-28T07:44:13.174Z,58.05
2023-01-28T07:45:16.427Z,59.15
2023-01-28T07:46:18.371Z,60.57
2023-01-28T07:47:20.456Z,61.92
2023-01-28T07:48:22.591Z,63.36
2023-01-28T07:49:24.427Z,64.45
2023-01-28T07:50:27.304Z,64.28
2023-01-28T07:51:30.061Z,63.20
2023-01-28T07:52:38.461Z,61.93
2023-01-28T07:53:40.458Z,60.65
2023-01-28T07:54:42.363Z,59.55
2023-01-28T07:55:44.483Z,58.34
2023-01-28T07:56:46.671Z,57.68
2023-01-28T07:57:52.912Z,58.16
2023-01-28T07:58:55.195Z,59.30
2023-01-28T07:59:57.297Z,60.54
2023-01-28T08:00:59.729Z,61.83
2023-01-28T08:02:01.908Z,63.14
2023-01-28T08:03:16.952Z,64.34
2023-01-28T08:04:19.264Z,64.27
2023-01-28T08:05:22.154Z,63.30
2023-01-28T08:06:24.371Z,62.09
2023-01-28T08:07:27.725Z,60.93
2023-01-28T08:08:30.218Z,59.82
2023-01-28T08:09:34.437Z,58.65
2023-01-28T08:10:39.151Z,57.78
2023-01-28T08:11:41.055Z,58.18
2023-01-28T08:12:57.365Z,59.22
2023-01-28T08:14:00.605Z,60.75
2023-01-28T08:15:02.772Z,61.98
2023-01-28T08:16:05.184Z,63.24
2023-01-28T08:17:07.292Z,64.30
2023-01-28T08:18:13.366Z,64.17
2023-01-28T08:19:15.714Z,63.20
2023-01-28T08:20:18.049Z,62.01
2023-01-28T08:21:20.017Z,60.86
2023-01-28T08:22:26.087Z,59.85
2023-01-28T08:23:29.179Z,58.66
2023-01-28T08:24:31.566Z,57.83
2023-01-28T08:25:34.716Z,58.17
2023-01-28T08:26:36.745Z,59.26
2023-01-28T08:27:39.075Z,60.66
2023-01-28T08:28:41.403Z,62.09
2023-01-28T08:29:43.948Z,63.50
2023-01-28T08:30:47.204Z,64.49
2023-01-28T08:31:49.363Z,64.30
2023-01-28T08:32:51.497Z,63.39
2023-01-28T08:33:53.435Z,62.16
2023-01-28T08:34:55.645Z,60.97
2023-01-28T08:35:57.646Z,59.91
2023-01-28T08:36:59.780Z,58.90
2023-01-28T08:38:03.393Z,57.93
2023-01-28T08:39:06.227Z,58.06
2023-01-28T08:40:09.436Z,59.09
2023-01-28T08:41:11.488Z,60.50
2023-01-28T08:42:13.538Z,61.90
2023-01-28T08:43:15.473Z,63.24
2023-01-28T08:44:17.463Z,64.27
2023-01-28T08:45:27.760Z,64.10
2023-01-28T08:46:30.369Z,62.93
2023-01-28T08:47:32.658Z,61.70
2023-01-28T08:48:34.930Z,60.58
2023-01-28T08:49:37.150Z,59.51
2023-01-28T08:50:40.163Z,58.29
2023-01-28T08:51:42.204Z,57.71
2023-01-28T08:52:45.363Z,58.19
2023-01-28T08:53:47.490Z,59.21
2023-01-28T08:54:49.312Z,60.43
2023-01-28T08:55:51.320Z,61.68
2023-01-28T08:56:53.350Z,62.97
2023-01-28T08:57:57.493Z,64.27
2023-01-28T08:59:00.534Z,64.40
2023-01-28T09:00:02.753Z,63.49
2023-01-28T09:01:07.152Z,62.23
2023-01-28T09:02:16.599Z,60.93
2023-01-28T09:03:27.675Z,59.58
2023-01-28T09:04:30.282Z,58.47
2023-01-28T09:05:34.195Z,57.72
2023-01-28T09:06:36.364Z,58.16
2023-01-28T09:07:39.614Z,59.22
2023-01-28T09:08:42.256Z,60.51
2023-01-28T09:09:44.465Z,61.80
2023-01-28T09:10:46.606Z,63.12
2023-01-28T09:11:48.897Z,64.29
2023-01-28T09:12:51.031Z,64.27
2023-01-28T09:13:53.320Z,63.46
2023-01-28T09:14:55.503Z,62.27
2023-01-28T09:15:57.953Z,60.95
2023-01-28T09:17:00.015Z,59.77
2023-01-28T09:18:02.394Z,58.59
2023-01-28T09:19:04.501Z,57.70
2023-01-28T09:20:08.398Z,57.95
2023-01-28T09:21:10.824Z,58.83
2023-01-28T09:22:12.962Z,59.97
2023-01-28T09:23:15.295Z,61.17
2023-01-28T09:24:17.395Z,62.34
2023-01-28T09:25:19.626Z,63.66
2023-01-28T09:26:21.804Z,64.45
2023-01-28T09:27:23.787Z,64.03
2023-01-28T09:28:25.697Z,62.97
2023-01-28T09:29:27.924Z,61.74
2023-01-28T09:30:30.421Z,60.51
2023-01-28T09:31:33.069Z,59.36
2023-01-28T09:32:35.480Z,58.07
2023-01-28T09:33:40.085Z,57.61
2023-01-28T09:34:42.106Z,58.25
2023-01-28T09:35:44.094Z,59.29
2023-01-28T09:36:46.252Z,60.48
2023-01-28T09:37:49.044Z,61.68
2023-01-28T09:38:51.969Z,62.90
2023-01-28T09:39:54.162Z,64.17
2023-01-28T09:40:57.072Z,64.32
2023-01-28T09:42:09.904Z,63.50
2023-01-28T09:43:36.973Z,62.06
2023-01-28T09:44:59.106Z,60.38
2023-01-28T09:46:05.815Z,59.09
2023-01-28T09:47:34.421Z,57.95
2023-01-28T09:48:42.939Z,58.27
2023-01-28T09:49:50.789Z,59.47
2023-01-28T09:50:54.780Z,60.82
2023-01-28T09:51:57.083Z,62.15
2023-01-28T09:53:18.282Z,63.56
2023-01-28T09:54:33.662Z,64.42
2023-01-28T09:55:44.556Z,63.50
2023-01-28T09:56:51.911Z,62.14
2023-01-28T09:57:55.564Z,60.83
2023-01-28T09:59:16.216Z,59.75
2023-01-28T10:00:47.665Z,58.29
2023-01-28T10:02:32.043Z,57.81
2023-01-28T10:03:49.424Z,59.35
2023-01-28T10:05:20.891Z,60.95
2023-01-28T10:06:49.164Z,62.81
2023-01-28T10:08:17.326Z,64.32
2023-01-28T10:09:38.499Z,63.66
2023-01-28T10:11:05.684Z,62.12
2023-01-28T10:12:23.953Z,60.40
2023-01-28T10:13:31.940Z,59.02
2023-01-28T10:14:42.990Z,57.81
2023-01-28T10:15:55.733Z,58.03
2023-01-28T10:17:17.456Z,59.21
2023-01-28T10:18:41.035Z,60.87
2023-01-28T10:19:58.930Z,62.55
2023-01-28T10:21:25.336Z,64.22
2023-01-28T10:22:38.290Z,64.39
2023-01-28T10:24:11.927Z,63.11
2023-01-28T10:25:28.675Z,61.08
2023-01-28T10:26:37.105Z,59.74
2023-01-28T10:27:39.297Z,58.45
2023-01-28T10:28:41.628Z,57.67
2023-01-28T10:29:46.533Z,58.03
2023-01-28T10:30:49.467Z,59.09
2023-01-28T10:32:00.649Z,60.36
2023-01-28T10:33:20.592Z,61.83
2023-01-28T10:34:23.871Z,63.51
2023-01-28T10:35:27.785Z,64.37
2023-01-28T10:36:30.632Z,63.93
2023-01-28T10:37:37.308Z,62.83
2023-01-28T10:38:40.029Z,61.55
2023-01-28T10:39:43.899Z,60.36
2023-01-28T10:40:48.236Z,59.19
2023-01-28T10:41:58.032Z,57.80
2023-01-28T10:43:01.357Z,57.54
2023-01-28T10:44:03.669Z,58.37
2023-01-28T10:45:23.288Z,59.57
2023-01-28T10:46:34.109Z,61.02
2023-01-28T10:47:44.966Z,62.33
2023-01-28T10:49:08.628Z,63.75
2023-01-28T10:50:23.627Z,64.26
2023-01-28T10:51:34.695Z,63.26
2023-01-28T10:52:36.785Z,61.80
2023-01-28T10:53:44.535Z,60.57
2023-01-28T10:54:46.832Z,59.33
2023-01-28T10:55:54.551Z,57.98
2023-01-28T10:57:04.410Z,57.50
2023-01-28T10:58:20.683Z,58.30
2023-01-28T10:59:36.882Z,59.74
2023-01-28T11:00:40.156Z,61.29
2023-01-28T11:01:55.075Z,62.51
2023-01-28T11:02:58.004Z,64.09
2023-01-28T11:04:01.064Z,64.43
2023-01-28T11:05:05.708Z,63.67
2023-01-28T11:06:25.616Z,62.40
2023-01-28T11:07:28.071Z,60.75
2023-01-28T11:08:31.832Z,59.59
2023-01-28T11:09:38.554Z,58.27
2023-01-28T11:10:42.675Z,57.54
2023-01-28T11:11:44.628Z,57.94
2023-01-28T11:12:56.546Z,58.92
2023-01-28T11:13:58.915Z,60.40
2023-01-28T11:15:03.955Z,61.68
2023-01-28T11:16:17.470Z,62.95
2023-01-28T11:17:24.714Z,64.22
2023-01-28T11:18:34.019Z,64.04
2023-01-28T11:19:39.141Z,62.89
2023-01-28T11:20:52.334Z,61.53
2023-01-28T11:21:58.195Z,60.15
2023-01-28T11:23:00.310Z,59.02
2023-01-28T11:24:14.305Z,57.76
2023-01-28T11:25:37.657Z,57.73
2023-01-28T11:26:45.696Z,59.05
2023-01-28T11:27:50.538Z,60.36
2023-01-28T11:28:53.856Z,61.55
2023-01-28T11:30:04.681Z,62.72
2023-01-28T11:31:08.301Z,64.05
2023-01-28T11:32:21.238Z,64.13
2023-01-28T11:33:33.191Z,63.00
2023-01-28T11:34:35.465Z,61.52
2023-01-28T11:35:37.446Z,60.33
2023-01-28T11:36:51.481Z,59.18
2023-01-28T11:37:53.572Z,57.80
2023-01-28T11:39:02.594Z,57.70
2023-01-28T11:40:19.149Z,58.60
2023-01-28T11:41:33.196Z,60.08
2023-01-28T11:42:35.469Z,61.47
2023-01-28T11:43:37.787Z,62.65
2023-01-28T11:44:40.728Z,63.94
2023-01-28T11:46:07.374Z,64.32
2023-01-28T11:47:34.273Z,63.11
2023-01-28T11:48:55.204Z,61.31
2023-01-28T11:50:15.276Z,59.81
2023-01-28T11:51:30.539Z,58.23
2023-01-28T11:53:18.747Z,57.62
2023-01-28T11:54:45.590Z,59.01
2023-01-28T11:56:13.060Z,60.59
2023-01-28T11:57:38.621Z,62.14
2023-01-28T11:59:11.348Z,63.73
2023-01-28T12:00:36.308Z,64.09
2023-01-28T12:01:47.922Z,62.64
2023-01-28T12:02:58.909Z,61.05
2023-01-28T12:04:21.020Z,59.67
2023-01-28T12:05:49.028Z,58.09
2023-01-28T12:07:17.012Z,57.75
2023-01-28T12:08:24.636Z,58.99
2023-01-28T12:09:35.780Z,60.15
2023-01-28T12:10:47.327Z,61.45
2023-01-28T12:12:13.649Z,62.76
2023-01-28T12:13:42.396Z,64.02
2023-01-28T12:14:58.146Z,63.28
2023-01-28T12:16:28.055Z,61.81
2023-01-28T12:17:51.298Z,59.87
2023-01-28T12:19:27.640Z,58.04
2023-01-28T12:21:10.806Z,57.51
2023-01-28T12:22:52.287Z,59.17
2023-01-28T12:24:11.173Z,60.95
2023-01-28T12:25:22.906Z,62.35
2023-01-28T12:26:48.790Z,63.79
2023-01-28T12:28:15.900Z,64.17
2023-01-28T12:29:39.773Z,62.66
2023-01-28T12:32:19.983Z,59.15
2023-01-28T12:33:59.252Z,57.38
2023-01-28T12:35:11.576Z,57.84
2023-01-28T12:36:25.193Z,59.01
2023-01-28T12:37:36.186Z,60.46
2023-01-28T12:38:58.622Z,61.77
2023-01-28T12:40:19.326Z,63.30
2023-01-28T12:41:29.606Z,64.14
2023-01-28T12:42:41.053Z,63.30
2023-01-28T12:44:11.594Z,61.76
2023-01-28T12:45:17.633Z,59.82
2023-01-28T12:46:52.683Z,58.43
2023-01-28T12:48:10.666Z,57.49
2023-01-28T12:49:29.436Z,58.39
2023-01-28T12:50:47.395Z,59.73
2023-01-28T12:52:19.065Z,61.09
2023-01-28T12:53:43.265Z,62.57
2023-01-28T12:55:04.595Z,63.97
2023-01-28T12:56:20.301Z,63.67
2023-01-28T12:57:32.413Z,62.32
2023-01-28T12:58:43.971Z,60.78
2023-01-28T12:59:58.931Z,59.34
2023-01-28T13:01:09.647Z,57.73
2023-01-28T13:02:11.731Z,57.46
2023-01-28T13:03:40.218Z,58.10
2023-01-28T13:05:21.602Z,59.55
2023-01-28T13:06:51.359Z,61.41
2023-01-28T13:08:16.720Z,62.90
2023-01-28T13:09:23.135Z,63.96
2023-01-28T13:10:30.284Z,63.44
2023-01-28T13:11:37.337Z,62.20
2023-01-28T13:12:42.097Z,60.77
2023-01-28T13:13:46.804Z,59.57
2023-01-28T13:14:52.677Z,58.23
2023-01-28T13:15:56.715Z,57.46
2023-01-28T13:17:13.326Z,57.82
2023-01-28T13:18:39.758Z,59.03
2023-01-28T13:19:42.405Z,60.69
2023-01-28T13:20:52.165Z,61.79
2023-01-28T13:21:55.434Z,62.94
2023-01-28T13:23:06.828Z,63.88
2023-01-28T13:24:09.148Z,63.64
2023-01-28T13:25:25.198Z,62.58
2023-01-28T13:26:51.964Z,60.95
2023-01-28T13:27:57.442Z,59.16
2023-01-28T13:29:38.232Z,57.61
2023-01-28T13:30:49.869Z,57.53
2023-01-28T13:31:54.849Z,58.65
2023-01-28T13:33:02.997Z,59.81
2023-01-28T13:34:07.481Z,60.94
2023-01-28T13:35:40.195Z,62.00
2023-01-28T13:36:48.437Z,63.64
2023-01-28T13:37:51.799Z,64.03
2023-01-28T13:39:14.928Z,63.31
2023-01-28T13:40:23.862Z,61.61
2023-01-28T13:41:39.745Z,60.06
2023-01-28T13:42:42.335Z,58.34
2023-01-28T13:43:44.556Z,57.32
2023-01-28T13:44:46.573Z,57.55
2023-01-28T13:46:00.169Z,58.43
2023-01-28T13:47:08.359Z,59.73
2023-01-28T13:48:13.058Z,60.88
2023-01-28T13:49:27.502Z,61.99
2023-01-28T13:50:42.348Z,63.30
2023-01-28T13:51:58.857Z,64.14
2023-01-28T13:53:30.332Z,63.22
2023-01-28T13:54:37.964Z,61.26
2023-01-28T13:55:45.473Z,59.93
2023-01-28T13:57:17.829Z,58.56
2023-01-28T13:58:36.916Z,57.35
2023-01-28T13:59:51.606Z,58.04
2023-01-28T14:01:12.605Z,59.28
2023-01-28T14:02:21.908Z,60.75
2023-01-28T14:04:18.442Z,61.96
2023-01-28T14:05:39.486Z,63.85
2023-01-28T14:07:18.580Z,63.65
2023-01-28T14:08:48.490Z,61.76
2023-01-28T14:10:06.981Z,59.87
2023-01-28T14:11:11.869Z,58.22
2023-01-28T14:12:25.784Z,57.38
2023-01-28T14:13:43.034Z,57.93
2023-01-28T14:14:51.054Z,59.17
2023-01-28T14:16:20.303Z,60.30
2023-01-28T14:17:31.058Z,61.69
2023-01-28T14:18:42.769Z,62.76
2023-01-28T14:19:46.783Z,63.88
2023-01-28T14:20:50.724Z,63.76
2023-01-28T14:21:53.733Z,62.67
2023-01-28T14:23:03.975Z,61.32
2023-01-28T14:24:14.320Z,59.81
2023-01-28T14:25:27.199Z,58.18
2023-01-28T14:26:41.281Z,57.16
2023-01-28T14:27:50.735Z,57.73
2023-01-28T14:29:09.582Z,58.81
2023-01-28T14:30:25.877Z,60.22
2023-01-28T14:31:39.808Z,61.45
2023-01-28T14:32:52.397Z,62.46
2023-01-28T14:34:00.372Z,63.61
2023-01-28T14:35:10.139Z,63.75
2023-01-28T14:36:12.291Z,62.61
2023-01-28T14:37:20.156Z,61.19
2023-01-28T14:38:24.535Z,59.75
2023-01-28T14:39:31.117Z,58.32
2023-01-28T14:40:39.193Z,57.21
2023-01-28T14:41:46.046Z,57.33
2023-01-28T14:42:54.528Z,58.22
2023-01-28T14:43:58.155Z,59.42
2023-01-28T14:45:21.930Z,60.49
2023-01-28T14:46:36.258Z,61.62
2023-01-28T14:48:14.757Z,62.50
2023-01-28T14:49:52.066Z,64.01
2023-01-28T14:51:12.892Z,63.21
2023-01-28T14:52:39.916Z,61.52
2023-01-28T14:53:51.145Z,59.50
2023-01-28T14:55:05.367Z,57.74
2023-01-28T14:56:42.128Z,57.05
2023-01-28T14:57:56.381Z,58.18
2023-01-28T14:59:20.035Z,59.38